Bookmark and Share
Track history (hours):
 

Kauhale Kai

Last reported at 2014-Mar-02 23:32 UTC. Time now 2014-Apr-23 09:22 UTC.
Position N 32°38' W 117°06'.
Warning: this ship's position is 51 days out of date.

; draft 2.5 m.

Type: Pleasure craft. MMSI: 538070338.

NotesDate/timePositionNaut miles runAvg speedWind from/ knotsBaromVisibWave heightAir tempDewpointWater temp
2014-Mar-02 23:32N 32°38' W 117°06'0 0.0
2014-Mar-02 22:29N 32°38' W 117°06'0 0.0
2014-Mar-02 21:32N 32°38' W 117°06'0 0.0
2014-Mar-02 20:32N 32°38' W 117°06'0 0.0
2014-Mar-02 19:26N 32°38' W 117°06'0 0.0
2014-Mar-02 18:29N 32°38' W 117°06'0 0.0
2014-Mar-02 17:32N 32°38' W 117°06'0 0.0
2014-Mar-02 16:32N 32°38' W 117°06'0 0.0
2014-Mar-02 15:29N 32°38' W 117°06'0 0.0
2014-Mar-02 14:32N 32°38' W 117°06'0 0.0
2014-Mar-02 13:32N 32°38' W 117°06'0 0.0
2014-Mar-02 12:29N 32°38' W 117°06'0 0.0
2014-Mar-02 11:32N 32°38' W 117°06'0 0.0
2014-Mar-02 10:32N 32°38' W 117°06'0 0.0
2014-Mar-02 09:26N 32°38' W 117°06'0 0.0
2014-Mar-02 08:32N 32°38' W 117°06'0 0.0
2014-Mar-02 07:32N 32°38' W 117°06'0 0.0
2014-Mar-02 06:32N 32°38' W 117°06'0 0.0
2014-Mar-02 05:32N 32°38' W 117°06'0 0.0
2014-Mar-02 04:32N 32°38' W 117°06'0 0.0
2014-Mar-02 03:32N 32°38' W 117°06'0 0.0
2014-Mar-02 02:32N 32°38' W 117°06'0 0.0
2014-Mar-02 01:29N 32°38' W 117°06'0 0.0
2014-Mar-02 00:32N 32°38' W 117°06'0 0.0
2014-Mar-01 23:23N 32°38' W 117°06'0 0.0
2014-Mar-01 22:32N 32°38' W 117°06'0 0.0
2014-Mar-01 21:26N 32°38' W 117°06'0 0.0
2014-Mar-01 20:26N 32°38' W 117°06'0 0.0
2014-Mar-01 19:26N 32°38' W 117°06'0 0.0
2014-Mar-01 18:32N 32°38' W 117°06'0 0.0
2014-Mar-01 17:32N 32°38' W 117°06'0 0.0
2014-Mar-01 15:20N 32°38' W 117°06'0 0.0
2014-Mar-01 12:32N 32°38' W 117°06'0 0.0
2014-Mar-01 11:32N 32°38' W 117°06'0 0.0
2014-Mar-01 10:32N 32°38' W 117°06'0 0.0
2014-Mar-01 09:26N 32°38' W 117°06'0 0.0
2014-Mar-01 08:11N 32°38' W 117°06'0 0.0
2014-Mar-01 04:29N 32°38' W 117°06'0 0.0
2014-Mar-01 02:29N 32°38' W 117°06'0 0.0
2014-Mar-01 01:32N 32°38' W 117°06'0 0.0
2014-Mar-01 00:32N 32°38' W 117°06'0 0.0
2014-Feb-28 23:32N 32°38' W 117°06'0 0.0
2014-Feb-28 22:32N 32°38' W 117°06'4 3.4
2014-Feb-28 21:25N 32°41' W 117°09'4 4.6
2014-Feb-28 20:34N 32°43' W 117°13'1 1.4
2014-Feb-28 19:32N 32°42' W 117°14'3 3.1
2014-Feb-28 18:33N 32°42' W 117°10'6 5.5
2014-Feb-28 17:33N 32°38' W 117°06'0 0.0
2014-Feb-28 15:30N 32°38' W 117°06'0 0.0
2014-Feb-28 14:24N 32°38' W 117°06'0 0.0
2014-Feb-28 13:27N 32°38' W 117°06'0 0.0
2014-Feb-28 08:33N 32°38' W 117°06'0 0.0
2014-Feb-28 07:33N 32°38' W 117°06'0 0.0
2014-Feb-28 06:21N 32°38' W 117°06'0 0.0
2014-Feb-28 05:27N 32°38' W 117°06'0 0.0
2014-Feb-28 04:33N 32°38' W 117°06'0 0.0
2014-Feb-28 03:33N 32°38' W 117°06'0 0.0
2014-Feb-28 02:27N 32°38' W 117°06'0 0.0
2014-Feb-28 01:33N 32°38' W 117°06'0 0.0
2014-Feb-28 00:30N 32°38' W 117°06'0 0.0
2014-Feb-27 23:27N 32°38' W 117°06'0 0.0
2014-Feb-27 22:33N 32°38' W 117°06'0 0.0
2014-Feb-27 21:18N 32°38' W 117°06'0 0.0
2014-Feb-27 19:33N 32°38' W 117°06'0 0.0
2014-Feb-27 16:33N 32°38' W 117°06'0 0.0
2014-Feb-27 15:27N 32°38' W 117°06'0 0.0
2014-Feb-27 13:33N 32°38' W 117°06'0 0.0
2014-Feb-27 12:33N 32°38' W 117°06'0 0.0
2014-Feb-27 11:18N 32°38' W 117°06'0 0.0
2014-Feb-27 09:24N 32°38' W 117°06'0 0.0
2014-Feb-27 08:33N 32°38' W 117°06'0 0.0
2014-Feb-27 07:27N 32°38' W 117°06'0 0.0
2014-Feb-27 05:27N 32°38' W 117°06'0 0.0
2014-Feb-27 04:27N 32°38' W 117°06'0 0.0
2014-Feb-27 03:33N 32°38' W 117°06'0 0.0
2014-Feb-27 02:33N 32°38' W 117°06'0 0.0
2014-Feb-27 01:33N 32°38' W 117°06'0 0.0
2014-Feb-27 00:33N 32°38' W 117°06'0 0.0
2014-Feb-26 23:27N 32°38' W 117°06'0 0.0
2014-Feb-26 22:27N 32°38' W 117°06'0 0.0
2014-Feb-26 21:30N 32°38' W 117°06'0 0.0
2014-Feb-26 20:30N 32°38' W 117°06'0 0.0
2014-Feb-26 19:33N 32°38' W 117°06'0 0.0
2014-Feb-26 18:33N 32°38' W 117°06'0 0.0
2014-Feb-26 17:18N 32°38' W 117°06'0 0.0
2014-Feb-25 18:33N 32°38' W 117°06'0 0.0
2014-Feb-25 17:06N 32°38' W 117°06'0 0.0
2014-Feb-25 16:33N 32°38' W 117°06'0 0.0
2014-Feb-25 15:30N 32°38' W 117°06'0 0.0
2014-Feb-25 14:30N 32°38' W 117°06'0 0.0
2014-Feb-25 13:33N 32°38' W 117°06'0 0.0
2014-Feb-25 11:30N 32°38' W 117°06'0 0.0
2014-Feb-25 10:27N 32°38' W 117°06'0 0.0
2014-Feb-25 09:27N 32°38' W 117°06'0 0.0
2014-Feb-25 08:30N 32°38' W 117°06'0 0.0
2014-Feb-25 07:27N 32°38' W 117°06'0 0.0
2014-Feb-25 06:30N 32°38' W 117°06'0 0.0
2014-Feb-25 05:21N 32°38' W 117°06'0 0.0
2014-Feb-25 04:33N 32°38' W 117°06'0 0.0
2014-Feb-25 03:33N 32°38' W 117°06'0 0.0
2014-Feb-25 02:30N 32°38' W 117°06'0 0.0
2014-Feb-25 01:33N 32°38' W 117°06'0 0.0
2014-Feb-25 00:33N 32°38' W 117°06'0 0.0
2014-Feb-24 23:21N 32°38' W 117°06'0 0.0
2014-Feb-24 22:27N 32°38' W 117°06'0 0.0
2014-Feb-24 21:21N 32°38' W 117°06'0 0.0
2014-Feb-24 20:27N 32°38' W 117°06'0 0.0
2014-Feb-24 19:30N 32°38' W 117°06'0 0.0
2014-Feb-24 18:33N 32°38' W 117°06'0 0.0
2014-Feb-24 17:30N 32°38' W 117°06'0 0.0
2014-Feb-24 16:27N 32°38' W 117°06'0 0.0
2014-Feb-24 11:24N 32°38' W 117°06'0 0.0
2014-Feb-24 02:12N 32°38' W 117°06'0 0.0
2014-Feb-24 01:21N 32°38' W 117°06'0 0.0
2014-Feb-24 00:09N 32°38' W 117°06'0 0.0
2014-Feb-23 23:33N 32°38' W 117°06'0 0.0
2014-Feb-23 21:24N 32°38' W 117°06'0 0.0
2014-Feb-23 19:21N 32°38' W 117°06'0 0.0
2014-Feb-23 18:09N 32°38' W 117°06'0 0.0
2014-Feb-23 10:24N 32°38' W 117°06'0 0.0
2014-Feb-23 03:18N 32°38' W 117°06'0 0.0
2014-Feb-23 02:21N 32°38' W 117°06'0 0.0
2014-Feb-22 23:30N 32°38' W 117°06'0 0.0
2014-Feb-22 20:18N 32°38' W 117°06'0 0.0
2014-Feb-22 06:18N 32°38' W 117°06'0 0.0
2014-Feb-22 05:03N 32°38' W 117°06'0 0.0
2014-Feb-22 01:27N 32°38' W 117°06'0 0.0
2014-Feb-22 00:15N 32°38' W 117°06'0 0.0
2014-Feb-21 23:15N 32°38' W 117°06'0 0.0
2014-Feb-21 21:33N 32°38' W 117°06'0 0.0
2014-Feb-21 20:33N 32°38' W 117°06'0 0.0
2014-Feb-21 19:33N 32°38' W 117°06'0 0.0
2014-Feb-21 18:33N 32°38' W 117°06'0 0.0
2014-Feb-21 17:18N 32°38' W 117°06'0 0.0
2014-Feb-21 16:27N 32°38' W 117°06'0 0.0
2014-Feb-21 15:33N 32°38' W 117°06'0 0.0
2014-Feb-21 14:33N 32°38' W 117°06'0 0.0
2014-Feb-21 13:33N 32°38' W 117°06'0 0.0
2014-Feb-21 12:33N 32°38' W 117°06'0 0.0
2014-Feb-21 11:33N 32°38' W 117°06'0 0.0
2014-Feb-21 10:27N 32°38' W 117°06'0 0.0
2014-Feb-21 09:27N 32°38' W 117°06'0 0.0
2014-Feb-21 08:33N 32°38' W 117°06'0 0.0
2014-Feb-21 07:33N 32°38' W 117°06'0 0.0
2014-Feb-21 06:33N 32°38' W 117°06'0 0.0
2014-Feb-21 05:27N 32°38' W 117°06'0 0.0
2014-Feb-21 04:33N 32°38' W 117°06'0 0.0
2014-Feb-21 03:33N 32°38' W 117°06'0 0.0
2014-Feb-21 02:30N 32°38' W 117°06'0 0.0
2014-Feb-21 01:33N 32°38' W 117°06'0 0.0
2014-Feb-21 00:33N 32°38' W 117°06'0 0.0
2014-Feb-20 23:33N 32°38' W 117°06'  

Dump ship's entire track history

sailing weather and tide predictions

Kauhale Kai — V7MC9 — position and weather